sensor_id;sensor_type;location;lat;lon;timestamp;P1;durP1;ratioP1;P2;durP2;ratioP2
67564;SDS011;54393;53.556;49.216;2023-05-18T00:02:02;10.23;;;9.20;;
67564;SDS011;54393;53.556;49.216;2023-05-18T00:04:31;11.32;;;10.13;;
67564;SDS011;54393;53.556;49.216;2023-05-18T00:06:58;10.52;;;9.38;;
67564;SDS011;54393;53.556;49.216;2023-05-18T00:09:33;14.25;;;9.38;;
67564;SDS011;54393;53.556;49.216;2023-05-18T00:12:00;9.95;;;9.05;;
67564;SDS011;54393;53.556;49.216;2023-05-18T00:14:28;11.68;;;9.50;;
67564;SDS011;54393;53.556;49.216;2023-05-18T00:16:55;10.80;;;9.70;;
67564;SDS011;54393;53.556;49.216;2023-05-18T00:19:22;11.55;;;10.35;;
67564;SDS011;54393;53.556;49.216;2023-05-18T00:21:50;11.70;;;9.52;;
67564;SDS011;54393;53.556;49.216;2023-05-18T00:24:17;12.43;;;10.20;;
67564;SDS011;54393;53.556;49.216;2023-05-18T00:26:45;10.10;;;9.18;;
67564;SDS011;54393;53.556;49.216;2023-05-18T00:29:12;11.38;;;10.27;;
67564;SDS011;54393;53.556;49.216;2023-05-18T00:31:38;11.35;;;10.23;;
67564;SDS011;54393;53.556;49.216;2023-05-18T00:34:09;11.57;;;10.38;;
67564;SDS011;54393;53.556;49.216;2023-05-18T00:36:36;11.52;;;10.32;;
67564;SDS011;54393;53.556;49.216;2023-05-18T00:39:04;11.43;;;10.23;;
67564;SDS011;54393;53.556;49.216;2023-05-18T00:41:31;12.02;;;10.57;;
67564;SDS011;54393;53.556;49.216;2023-05-18T00:43:58;12.07;;;10.88;;
67564;SDS011;54393;53.556;49.216;2023-05-18T00:46:25;11.23;;;10.02;;
67564;SDS011;54393;53.556;49.216;2023-05-18T00:48:52;12.10;;;10.45;;
67564;SDS011;54393;53.556;49.216;2023-05-18T00:51:22;11.40;;;9.98;;
67564;SDS011;54393;53.556;49.216;2023-05-18T00:53:49;12.25;;;10.95;;
67564;SDS011;54393;53.556;49.216;2023-05-18T00:56:16;11.73;;;10.45;;
67564;SDS011;54393;53.556;49.216;2023-05-18T00:58:43;11.63;;;10.43;;
67564;SDS011;54393;53.556;49.216;2023-05-18T01:01:10;11.63;;;10.52;;
67564;SDS011;54393;53.556;49.216;2023-05-18T01:03:37;12.65;;;10.60;;
67564;SDS011;54393;53.556;49.216;2023-05-18T01:06:04;12.27;;;10.98;;
67564;SDS011;54393;53.556;49.216;2023-05-18T01:08:31;12.45;;;11.15;;
67564;SDS011;54393;53.556;49.216;2023-05-18T01:27:03;12.50;;;11.20;;
67564;SDS011;54393;53.556;49.216;2023-05-18T01:29:32;12.82;;;11.45;;
67564;SDS011;54393;53.556;49.216;2023-05-18T01:31:58;13.95;;;11.80;;
67564;SDS011;54393;53.556;49.216;2023-05-18T01:34:25;12.93;;;11.63;;
67564;SDS011;54393;53.556;49.216;2023-05-18T01:36:52;13.35;;;11.88;;
67564;SDS011;54393;53.556;49.216;2023-05-18T01:39:18;13.27;;;11.98;;
67564;SDS011;54393;53.556;49.216;2023-05-18T01:41:49;13.27;;;11.98;;
67564;SDS011;54393;53.556;49.216;2023-05-18T01:44:25;13.57;;;11.65;;
67564;SDS011;54393;53.556;49.216;2023-05-18T01:47:14;14.98;;;13.43;;
67564;SDS011;54393;53.556;49.216;2023-05-18T01:49:44;14.07;;;12.63;;
67564;SDS011;54393;53.556;49.216;2023-05-18T01:52:25;13.62;;;12.02;;
67564;SDS011;54393;53.556;49.216;2023-05-18T01:55:02;13.70;;;12.23;;
67564;SDS011;54393;53.556;49.216;2023-05-18T01:57:30;16.20;;;13.10;;
67564;SDS011;54393;53.556;49.216;2023-05-18T01:59:58;14.10;;;12.60;;
67564;SDS011;54393;53.556;49.216;2023-05-18T02:02:25;13.52;;;12.13;;
67564;SDS011;54393;53.556;49.216;2023-05-18T02:04:52;13.82;;;12.07;;
67564;SDS011;54393;53.556;49.216;2023-05-18T02:07:18;14.80;;;13.30;;
67564;SDS011;54393;53.556;49.216;2023-05-18T02:09:45;14.20;;;12.82;;
67564;SDS011;54393;53.556;49.216;2023-05-18T02:12:11;14.45;;;13.02;;
67564;SDS011;54393;53.556;49.216;2023-05-18T02:14:38;14.85;;;13.13;;
67564;SDS011;54393;53.556;49.216;2023-05-18T02:17:04;15.45;;;13.40;;
67564;SDS011;54393;53.556;49.216;2023-05-18T02:19:31;13.93;;;12.52;;
67564;SDS011;54393;53.556;49.216;2023-05-18T02:21:58;15.95;;;13.77;;
67564;SDS011;54393;53.556;49.216;2023-05-18T02:24:24;16.23;;;13.02;;
67564;SDS011;54393;53.556;49.216;2023-05-18T02:26:52;14.90;;;13.10;;
67564;SDS011;54393;53.556;49.216;2023-05-18T02:29:18;14.85;;;13.35;;
67564;SDS011;54393;53.556;49.216;2023-05-18T02:31:45;14.77;;;13.27;;
67564;SDS011;54393;53.556;49.216;2023-05-18T02:34:11;14.48;;;12.98;;
67564;SDS011;54393;53.556;49.216;2023-05-18T02:36:39;15.30;;;13.50;;
67564;SDS011;54393;53.556;49.216;2023-05-18T02:39:07;14.40;;;12.90;;
67564;SDS011;54393;53.556;49.216;2023-05-18T02:41:34;15.75;;;12.98;;
67564;SDS011;54393;53.556;49.216;2023-05-18T02:44:02;14.80;;;13.27;;
67564;SDS011;54393;53.556;49.216;2023-05-18T02:46:29;15.48;;;13.88;;
67564;SDS011;54393;53.556;49.216;2023-05-18T02:48:56;15.63;;;13.93;;
67564;SDS011;54393;53.556;49.216;2023-05-18T02:51:23;14.48;;;13.02;;
67564;SDS011;54393;53.556;49.216;2023-05-18T02:53:50;15.07;;;13.57;;
67564;SDS011;54393;53.556;49.216;2023-05-18T02:56:17;15.13;;;13.62;;
67564;SDS011;54393;53.556;49.216;2023-05-18T02:58:44;14.77;;;12.95;;
67564;SDS011;54393;53.556;49.216;2023-05-18T03:01:10;17.92;;;13.35;;
67564;SDS011;54393;53.556;49.216;2023-05-18T03:03:37;15.73;;;14.05;;
67564;SDS011;54393;53.556;49.216;2023-05-18T03:06:06;15.43;;;13.75;;
67564;SDS011;54393;53.556;49.216;2023-05-18T03:08:33;16.80;;;13.55;;
67564;SDS011;54393;53.556;49.216;2023-05-18T03:11:05;17.42;;;14.43;;
67564;SDS011;54393;53.556;49.216;2023-05-18T03:13:31;15.18;;;13.60;;
67564;SDS011;54393;53.556;49.216;2023-05-18T03:15:58;15.02;;;13.48;;
67564;SDS011;54393;53.556;49.216;2023-05-18T03:18:24;15.15;;;13.55;;
67564;SDS011;54393;53.556;49.216;2023-05-18T03:20:51;15.20;;;13.60;;
67564;SDS011;54393;53.556;49.216;2023-05-18T03:23:18;15.77;;;14.13;;
67564;SDS011;54393;53.556;49.216;2023-05-18T03:25:44;15.80;;;14.10;;
67564;SDS011;54393;53.556;49.216;2023-05-18T03:28:11;14.87;;;13.30;;
67564;SDS011;54393;53.556;49.216;2023-05-18T03:30:37;15.88;;;14.18;;
67564;SDS011;54393;53.556;49.216;2023-05-18T03:33:04;15.30;;;13.45;;
67564;SDS011;54393;53.556;49.216;2023-05-18T03:35:30;15.65;;;14.05;;
67564;SDS011;54393;53.556;49.216;2023-05-18T03:37:58;15.05;;;13.32;;
67564;SDS011;54393;53.556;49.216;2023-05-18T03:40:24;16.83;;;15.05;;
67564;SDS011;54393;53.556;49.216;2023-05-18T03:42:51;15.00;;;13.40;;
67564;SDS011;54393;53.556;49.216;2023-05-18T03:45:17;15.15;;;13.20;;
67564;SDS011;54393;53.556;49.216;2023-05-18T03:47:44;15.32;;;13.35;;
67564;SDS011;54393;53.556;49.216;2023-05-18T03:50:11;15.88;;;13.93;;
67564;SDS011;54393;53.556;49.216;2023-05-18T03:52:38;15.00;;;13.38;;
67564;SDS011;54393;53.556;49.216;2023-05-18T03:55:05;15.18;;;13.57;;
67564;SDS011;54393;53.556;49.216;2023-05-18T03:57:32;14.43;;;12.95;;
67564;SDS011;54393;53.556;49.216;2023-05-18T03:59:58;15.15;;;13.45;;
67564;SDS011;54393;53.556;49.216;2023-05-18T04:02:25;15.18;;;13.68;;
67564;SDS011;54393;53.556;49.216;2023-05-18T04:04:51;16.77;;;14.07;;
67564;SDS011;54393;53.556;49.216;2023-05-18T04:07:18;15.30;;;13.70;;
67564;SDS011;54393;53.556;49.216;2023-05-18T04:09:48;17.15;;;13.98;;
67564;SDS011;54393;53.556;49.216;2023-05-18T04:12:16;15.10;;;13.50;;
67564;SDS011;54393;53.556;49.216;2023-05-18T04:14:42;15.48;;;13.85;;
67564;SDS011;54393;53.556;49.216;2023-05-18T04:17:17;15.70;;;13.62;;
67564;SDS011;54393;53.556;49.216;2023-05-18T04:19:50;15.27;;;12.90;;
67564;SDS011;54393;53.556;49.216;2023-05-18T04:22:16;15.32;;;13.65;;
67564;SDS011;54393;53.556;49.216;2023-05-18T04:24:43;16.10;;;13.73;;
67564;SDS011;54393;53.556;49.216;2023-05-18T04:27:12;14.60;;;13.13;;
67564;SDS011;54393;53.556;49.216;2023-05-18T04:29:39;14.50;;;12.98;;
67564;SDS011;54393;53.556;49.216;2023-05-18T04:32:08;14.52;;;12.98;;
67564;SDS011;54393;53.556;49.216;2023-05-18T04:34:35;14.45;;;13.00;;
67564;SDS011;54393;53.556;49.216;2023-05-18T04:37:05;15.45;;;13.38;;
67564;SDS011;54393;53.556;49.216;2023-05-18T04:39:32;15.07;;;13.50;;
67564;SDS011;54393;53.556;49.216;2023-05-18T04:41:59;14.77;;;13.13;;
67564;SDS011;54393;53.556;49.216;2023-05-18T04:44:29;16.15;;;13.75;;
67564;SDS011;54393;53.556;49.216;2023-05-18T04:46:59;15.88;;;13.55;;
67564;SDS011;54393;53.556;49.216;2023-05-18T04:49:25;15.98;;;14.07;;
67564;SDS011;54393;53.556;49.216;2023-05-18T04:51:53;16.83;;;13.77;;
67564;SDS011;54393;53.556;49.216;2023-05-18T04:54:24;14.68;;;12.82;;
67564;SDS011;54393;53.556;49.216;2023-05-18T04:56:51;16.77;;;13.88;;
67564;SDS011;54393;53.556;49.216;2023-05-18T04:59:18;17.58;;;13.80;;
67564;SDS011;54393;53.556;49.216;2023-05-18T05:01:45;14.87;;;13.27;;
67564;SDS011;54393;53.556;49.216;2023-05-18T05:04:12;17.60;;;13.35;;
67564;SDS011;54393;53.556;49.216;2023-05-18T05:06:39;15.10;;;13.50;;
67564;SDS011;54393;53.556;49.216;2023-05-18T05:09:05;15.32;;;12.77;;
67564;SDS011;54393;53.556;49.216;2023-05-18T05:11:32;14.90;;;13.25;;
67564;SDS011;54393;53.556;49.216;2023-05-18T05:14:00;15.35;;;13.40;;
67564;SDS011;54393;53.556;49.216;2023-05-18T05:16:27;15.50;;;12.85;;
67564;SDS011;54393;53.556;49.216;2023-05-18T05:18:53;16.25;;;13.77;;
67564;SDS011;54393;53.556;49.216;2023-05-18T05:21:20;15.00;;;13.43;;
67564;SDS011;54393;53.556;49.216;2023-05-18T05:23:46;15.32;;;12.90;;
67564;SDS011;54393;53.556;49.216;2023-05-18T05:26:13;17.45;;;14.07;;
67564;SDS011;54393;53.556;49.216;2023-05-18T05:28:39;14.63;;;12.98;;
67564;SDS011;54393;53.556;49.216;2023-05-18T05:31:06;15.93;;;12.95;;
67564;SDS011;54393;53.556;49.216;2023-05-18T05:33:33;17.17;;;13.07;;
67564;SDS011;54393;53.556;49.216;2023-05-18T05:36:00;15.90;;;13.07;;
67564;SDS011;54393;53.556;49.216;2023-05-18T05:38:27;14.85;;;13.15;;
67564;SDS011;54393;53.556;49.216;2023-05-18T05:40:53;17.15;;;13.35;;
67564;SDS011;54393;53.556;49.216;2023-05-18T05:43:19;15.60;;;13.15;;
67564;SDS011;54393;53.556;49.216;2023-05-18T05:45:46;18.00;;;12.80;;
67564;SDS011;54393;53.556;49.216;2023-05-18T05:48:12;15.63;;;13.05;;
67564;SDS011;54393;53.556;49.216;2023-05-18T05:50:39;16.90;;;12.60;;
67564;SDS011;54393;53.556;49.216;2023-05-18T05:53:05;17.73;;;13.10;;
67564;SDS011;54393;53.556;49.216;2023-05-18T05:55:32;14.95;;;13.35;;
67564;SDS011;54393;53.556;49.216;2023-05-18T05:58:01;15.68;;;13.00;;
67564;SDS011;54393;53.556;49.216;2023-05-18T06:00:29;13.50;;;11.70;;
67564;SDS011;54393;53.556;49.216;2023-05-18T06:02:55;15.50;;;12.80;;
67564;SDS011;54393;53.556;49.216;2023-05-18T06:05:22;15.82;;;12.95;;
67564;SDS011;54393;53.556;49.216;2023-05-18T06:07:49;16.75;;;12.60;;
67564;SDS011;54393;53.556;49.216;2023-05-18T06:10:16;17.35;;;12.68;;
67564;SDS011;54393;53.556;49.216;2023-05-18T06:12:42;19.95;;;12.73;;
67564;SDS011;54393;53.556;49.216;2023-05-18T06:15:11;16.37;;;12.32;;
67564;SDS011;54393;53.556;49.216;2023-05-18T06:17:38;16.62;;;12.90;;
67564;SDS011;54393;53.556;49.216;2023-05-18T06:20:05;18.08;;;12.82;;
67564;SDS011;54393;53.556;49.216;2023-05-18T06:22:32;20.10;;;12.88;;
67564;SDS011;54393;53.556;49.216;2023-05-18T06:24:59;22.95;;;12.20;;
67564;SDS011;54393;53.556;49.216;2023-05-18T06:27:25;20.15;;;12.43;;
67564;SDS011;54393;53.556;49.216;2023-05-18T06:29:52;15.07;;;12.02;;
67564;SDS011;54393;53.556;49.216;2023-05-18T06:32:18;15.23;;;11.43;;
67564;SDS011;54393;53.556;49.216;2023-05-18T06:34:45;21.92;;;12.40;;
67564;SDS011;54393;53.556;49.216;2023-05-18T06:37:11;15.98;;;10.43;;
67564;SDS011;54393;53.556;49.216;2023-05-18T06:39:38;15.60;;;10.15;;
67564;SDS011;54393;53.556;49.216;2023-05-18T06:42:04;18.05;;;10.65;;
67564;SDS011;54393;53.556;49.216;2023-05-18T06:44:31;15.38;;;9.82;;
67564;SDS011;54393;53.556;49.216;2023-05-18T06:47:00;16.15;;;9.73;;
67564;SDS011;54393;53.556;49.216;2023-05-18T06:49:26;24.90;;;9.23;;
67564;SDS011;54393;53.556;49.216;2023-05-18T06:51:53;15.80;;;9.77;;
67564;SDS011;54393;53.556;49.216;2023-05-18T06:54:19;20.62;;;9.68;;
67564;SDS011;54393;53.556;49.216;2023-05-18T06:56:46;19.75;;;8.77;;
67564;SDS011;54393;53.556;49.216;2023-05-18T06:59:13;19.15;;;9.13;;
67564;SDS011;54393;53.556;49.216;2023-05-18T07:01:40;15.05;;;8.35;;
67564;SDS011;54393;53.556;49.216;2023-05-18T07:04:06;19.80;;;8.10;;
67564;SDS011;54393;53.556;49.216;2023-05-18T07:06:33;16.23;;;8.13;;
67564;SDS011;54393;53.556;49.216;2023-05-18T07:09:00;17.55;;;7.60;;
67564;SDS011;54393;53.556;49.216;2023-05-18T07:11:28;13.80;;;7.75;;
67564;SDS011;54393;53.556;49.216;2023-05-18T07:13:54;13.60;;;7.47;;
67564;SDS011;54393;53.556;49.216;2023-05-18T07:16:21;17.80;;;7.93;;
67564;SDS011;54393;53.556;49.216;2023-05-18T07:18:47;18.08;;;7.28;;
67564;SDS011;54393;53.556;49.216;2023-05-18T07:21:14;14.50;;;6.85;;
67564;SDS011;54393;53.556;49.216;2023-05-18T07:23:40;15.55;;;7.28;;
67564;SDS011;54393;53.556;49.216;2023-05-18T07:26:07;14.80;;;6.80;;
67564;SDS011;54393;53.556;49.216;2023-05-18T07:28:36;13.35;;;6.80;;
67564;SDS011;54393;53.556;49.216;2023-05-18T07:31:03;16.77;;;6.30;;
67564;SDS011;54393;53.556;49.216;2023-05-18T07:33:30;17.73;;;6.70;;
67564;SDS011;54393;53.556;49.216;2023-05-18T07:35:57;14.90;;;6.75;;
67564;SDS011;54393;53.556;49.216;2023-05-18T07:38:23;14.10;;;6.53;;
67564;SDS011;54393;53.556;49.216;2023-05-18T07:40:50;13.20;;;6.45;;
67564;SDS011;54393;53.556;49.216;2023-05-18T07:43:16;12.07;;;5.82;;
67564;SDS011;54393;53.556;49.216;2023-05-18T07:45:43;13.75;;;5.60;;
67564;SDS011;54393;53.556;49.216;2023-05-18T07:48:09;14.73;;;6.20;;
67564;SDS011;54393;53.556;49.216;2023-05-18T07:50:36;12.68;;;6.03;;
67564;SDS011;54393;53.556;49.216;2023-05-18T07:53:03;10.80;;;6.20;;
67564;SDS011;54393;53.556;49.216;2023-05-18T07:55:29;9.82;;;5.80;;
67564;SDS011;54393;53.556;49.216;2023-05-18T07:57:56;14.75;;;6.68;;
67564;SDS011;54393;53.556;49.216;2023-05-18T08:00:25;9.43;;;5.40;;
67564;SDS011;54393;53.556;49.216;2023-05-18T08:02:52;12.65;;;5.68;;
67564;SDS011;54393;53.556;49.216;2023-05-18T08:05:19;12.32;;;4.93;;
67564;SDS011;54393;53.556;49.216;2023-05-18T08:07:47;13.40;;;5.72;;
67564;SDS011;54393;53.556;49.216;2023-05-18T08:10:13;10.02;;;4.57;;
67564;SDS011;54393;53.556;49.216;2023-05-18T08:12:40;9.95;;;4.70;;
67564;SDS011;54393;53.556;49.216;2023-05-18T08:15:06;13.77;;;4.93;;
67564;SDS011;54393;53.556;49.216;2023-05-18T08:17:34;11.70;;;4.80;;
67564;SDS011;54393;53.556;49.216;2023-05-18T08:20:01;9.38;;;4.72;;
67564;SDS011;54393;53.556;49.216;2023-05-18T08:22:29;14.48;;;5.47;;
67564;SDS011;54393;53.556;49.216;2023-05-18T08:24:55;14.80;;;5.70;;
67564;SDS011;54393;53.556;49.216;2023-05-18T08:27:25;15.82;;;5.40;;
67564;SDS011;54393;53.556;49.216;2023-05-18T08:29:52;14.00;;;5.22;;
67564;SDS011;54393;53.556;49.216;2023-05-18T08:32:18;10.40;;;5.10;;
67564;SDS011;54393;53.556;49.216;2023-05-18T08:34:45;15.73;;;4.22;;
67564;SDS011;54393;53.556;49.216;2023-05-18T08:37:14;12.80;;;4.25;;
67564;SDS011;54393;53.556;49.216;2023-05-18T08:39:40;7.25;;;4.47;;
67564;SDS011;54393;53.556;49.216;2023-05-18T08:45:17;10.15;;;4.60;;
67564;SDS011;54393;53.556;49.216;2023-05-18T08:47:48;15.52;;;5.35;;
67564;SDS011;54393;53.556;49.216;2023-05-18T08:50:19;13.68;;;4.75;;
67564;SDS011;54393;53.556;49.216;2023-05-18T08:52:46;12.68;;;4.60;;
67564;SDS011;54393;53.556;49.216;2023-05-18T08:55:13;12.13;;;4.18;;
67564;SDS011;54393;53.556;49.216;2023-05-18T08:57:41;7.30;;;4.62;;
67564;SDS011;54393;53.556;49.216;2023-05-18T09:00:08;14.77;;;4.62;;
67564;SDS011;54393;53.556;49.216;2023-05-18T09:02:36;11.55;;;4.20;;
67564;SDS011;54393;53.556;49.216;2023-05-18T09:05:04;12.98;;;5.62;;
67564;SDS011;54393;53.556;49.216;2023-05-18T09:07:32;15.25;;;5.80;;
67564;SDS011;54393;53.556;49.216;2023-05-18T09:09:59;13.70;;;5.00;;
67564;SDS011;54393;53.556;49.216;2023-05-18T09:12:26;9.23;;;4.45;;
67564;SDS011;54393;53.556;49.216;2023-05-18T09:14:53;7.80;;;4.20;;
67564;SDS011;54393;53.556;49.216;2023-05-18T09:17:20;12.32;;;4.10;;
67564;SDS011;54393;53.556;49.216;2023-05-18T09:19:48;7.50;;;4.12;;
67564;SDS011;54393;53.556;49.216;2023-05-18T09:22:14;7.72;;;3.75;;
67564;SDS011;54393;53.556;49.216;2023-05-18T09:24:41;10.30;;;3.95;;
67564;SDS011;54393;53.556;49.216;2023-05-18T09:27:07;6.22;;;3.87;;
67564;SDS011;54393;53.556;49.216;2023-05-18T09:29:34;8.00;;;4.00;;
67564;SDS011;54393;53.556;49.216;2023-05-18T09:32:01;13.32;;;4.47;;
67564;SDS011;54393;53.556;49.216;2023-05-18T09:34:38;13.07;;;4.55;;
67564;SDS011;54393;53.556;49.216;2023-05-18T09:37:06;13.38;;;4.20;;
67564;SDS011;54393;53.556;49.216;2023-05-18T09:39:33;8.98;;;4.30;;
67564;SDS011;54393;53.556;49.216;2023-05-18T09:42:01;9.27;;;4.50;;
67564;SDS011;54393;53.556;49.216;2023-05-18T09:44:35;12.55;;;4.45;;
67564;SDS011;54393;53.556;49.216;2023-05-18T09:47:07;17.00;;;4.10;;
67564;SDS011;54393;53.556;49.216;2023-05-18T09:49:34;11.30;;;5.60;;
67564;SDS011;54393;53.556;49.216;2023-05-18T09:52:02;8.85;;;5.18;;
67564;SDS011;54393;53.556;49.216;2023-05-18T09:54:34;14.07;;;4.93;;
67564;SDS011;54393;53.556;49.216;2023-05-18T09:57:02;12.70;;;4.65;;
67564;SDS011;54393;53.556;49.216;2023-05-18T09:59:29;15.60;;;4.18;;
67564;SDS011;54393;53.556;49.216;2023-05-18T10:01:56;7.75;;;4.15;;
67564;SDS011;54393;53.556;49.216;2023-05-18T10:04:34;9.93;;;4.50;;
67564;SDS011;54393;53.556;49.216;2023-05-18T10:07:08;13.18;;;4.25;;
67564;SDS011;54393;53.556;49.216;2023-05-18T10:09:38;14.27;;;4.37;;
67564;SDS011;54393;53.556;49.216;2023-05-18T10:12:15;7.57;;;3.83;;
67564;SDS011;54393;53.556;49.216;2023-05-18T10:14:43;9.43;;;4.07;;
67564;SDS011;54393;53.556;49.216;2023-05-18T10:17:10;10.40;;;4.00;;
67564;SDS011;54393;53.556;49.216;2023-05-18T10:19:38;22.05;;;15.95;;
67564;SDS011;54393;53.556;49.216;2023-05-18T10:22:08;12.45;;;7.05;;
67564;SDS011;54393;53.556;49.216;2023-05-18T10:24:39;13.73;;;5.10;;
67564;SDS011;54393;53.556;49.216;2023-05-18T10:27:08;12.52;;;4.47;;
67564;SDS011;54393;53.556;49.216;2023-05-18T10:29:35;7.03;;;4.68;;
67564;SDS011;54393;53.556;49.216;2023-05-18T10:32:02;13.60;;;4.12;;
67564;SDS011;54393;53.556;49.216;2023-05-18T10:34:30;7.65;;;3.67;;
67564;SDS011;54393;53.556;49.216;2023-05-18T10:36:58;4.35;;;3.92;;
67564;SDS011;54393;53.556;49.216;2023-05-18T10:39:32;10.55;;;3.90;;
67564;SDS011;54393;53.556;49.216;2023-05-18T10:42:02;11.20;;;4.25;;
67564;SDS011;54393;53.556;49.216;2023-05-18T10:44:30;6.82;;;4.35;;
67564;SDS011;54393;53.556;49.216;2023-05-18T10:46:57;6.60;;;4.10;;
67564;SDS011;54393;53.556;49.216;2023-05-18T10:49:24;9.48;;;4.25;;
67564;SDS011;54393;53.556;49.216;2023-05-18T10:51:51;12.75;;;4.00;;
67564;SDS011;54393;53.556;49.216;2023-05-18T10:54:21;7.47;;;3.67;;
67564;SDS011;54393;53.556;49.216;2023-05-18T10:56:49;7.45;;;3.92;;
67564;SDS011;54393;53.556;49.216;2023-05-18T10:59:16;5.32;;;3.65;;
67564;SDS011;54393;53.556;49.216;2023-05-18T11:01:44;7.43;;;3.72;;
67564;SDS011;54393;53.556;49.216;2023-05-18T11:04:12;11.65;;;3.55;;
67564;SDS011;54393;53.556;49.216;2023-05-18T11:06:39;7.78;;;4.20;;
67564;SDS011;54393;53.556;49.216;2023-05-18T11:09:05;3.90;;;3.25;;
67564;SDS011;54393;53.556;49.216;2023-05-18T11:11:49;5.85;;;3.87;;
67564;SDS011;54393;53.556;49.216;2023-05-18T11:14:23;7.50;;;3.67;;
67564;SDS011;54393;53.556;49.216;2023-05-18T11:16:51;8.50;;;3.90;;
67564;SDS011;54393;53.556;49.216;2023-05-18T11:19:19;5.72;;;3.55;;
67564;SDS011;54393;53.556;49.216;2023-05-18T11:21:51;8.23;;;3.78;;
67564;SDS011;54393;53.556;49.216;2023-05-18T11:24:21;4.93;;;3.80;;
67564;SDS011;54393;53.556;49.216;2023-05-18T11:26:53;8.65;;;3.75;;
67564;SDS011;54393;53.556;49.216;2023-05-18T11:29:21;3.83;;;3.53;;
67564;SDS011;54393;53.556;49.216;2023-05-18T11:31:49;6.30;;;4.12;;
67564;SDS011;54393;53.556;49.216;2023-05-18T11:34:33;5.87;;;3.40;;
67564;SDS011;54393;53.556;49.216;2023-05-18T11:37:03;7.82;;;3.83;;
67564;SDS011;54393;53.556;49.216;2023-05-18T11:39:31;6.07;;;3.42;;
67564;SDS011;54393;53.556;49.216;2023-05-18T11:42:01;6.12;;;3.90;;
67564;SDS011;54393;53.556;49.216;2023-05-18T11:44:30;4.55;;;3.53;;
67564;SDS011;54393;53.556;49.216;2023-05-18T11:54:34;6.35;;;3.20;;
67564;SDS011;54393;53.556;49.216;2023-05-18T11:57:17;6.25;;;3.50;;
67564;SDS011;54393;53.556;49.216;2023-05-18T11:59:46;5.18;;;3.50;;
67564;SDS011;54393;53.556;49.216;2023-05-18T12:02:17;3.58;;;3.25;;
67564;SDS011;54393;53.556;49.216;2023-05-18T12:05:08;4.28;;;2.90;;
67564;SDS011;54393;53.556;49.216;2023-05-18T12:07:35;4.68;;;3.12;;
67564;SDS011;54393;53.556;49.216;2023-05-18T12:10:03;6.05;;;3.37;;
67564;SDS011;54393;53.556;49.216;2023-05-18T12:12:38;5.65;;;2.97;;
67564;SDS011;54393;53.556;49.216;2023-05-18T12:15:06;4.90;;;3.40;;
67564;SDS011;54393;53.556;49.216;2023-05-18T12:17:38;4.90;;;3.40;;
67564;SDS011;54393;53.556;49.216;2023-05-18T12:20:07;3.58;;;3.15;;
67564;SDS011;54393;53.556;49.216;2023-05-18T12:22:48;3.30;;;3.03;;
67564;SDS011;54393;53.556;49.216;2023-05-18T12:25:16;3.70;;;3.10;;
67564;SDS011;54393;53.556;49.216;2023-05-18T12:27:47;3.42;;;3.12;;
67564;SDS011;54393;53.556;49.216;2023-05-18T12:30:33;5.80;;;3.50;;
67564;SDS011;54393;53.556;49.216;2023-05-18T12:33:00;4.78;;;3.50;;
67564;SDS011;54393;53.556;49.216;2023-05-18T12:35:28;6.75;;;3.58;;
67564;SDS011;54393;53.556;49.216;2023-05-18T12:37:56;5.65;;;3.30;;
67564;SDS011;54393;53.556;49.216;2023-05-18T12:40:24;3.80;;;2.95;;
67564;SDS011;54393;53.556;49.216;2023-05-18T12:42:55;3.55;;;3.25;;
67564;SDS011;54393;53.556;49.216;2023-05-18T12:45:29;3.67;;;3.10;;
67564;SDS011;54393;53.556;49.216;2023-05-18T12:48:09;6.50;;;3.20;;
67564;SDS011;54393;53.556;49.216;2023-05-18T12:50:44;4.03;;;3.20;;
67564;SDS011;54393;53.556;49.216;2023-05-18T12:55:38;5.05;;;3.20;;
67564;SDS011;54393;53.556;49.216;2023-05-18T12:58:11;5.87;;;3.33;;
67564;SDS011;54393;53.556;49.216;2023-05-18T13:00:43;4.78;;;3.58;;
67564;SDS011;54393;53.556;49.216;2023-05-18T13:03:19;4.87;;;3.20;;
67564;SDS011;54393;53.556;49.216;2023-05-18T13:06:01;3.53;;;3.03;;
67564;SDS011;54393;53.556;49.216;2023-05-18T13:08:30;3.67;;;3.28;;
67564;SDS011;54393;53.556;49.216;2023-05-18T13:11:00;4.55;;;2.95;;
67564;SDS011;54393;53.556;49.216;2023-05-18T13:13:27;3.67;;;3.37;;
67564;SDS011;54393;53.556;49.216;2023-05-18T13:15:54;5.07;;;3.00;;
67564;SDS011;54393;53.556;49.216;2023-05-18T13:18:23;5.53;;;3.47;;
67564;SDS011;54393;53.556;49.216;2023-05-18T13:20:53;3.65;;;3.35;;
67564;SDS011;54393;53.556;49.216;2023-05-18T13:23:21;4.00;;;3.30;;
67564;SDS011;54393;53.556;49.216;2023-05-18T13:25:49;3.10;;;2.80;;
67564;SDS011;54393;53.556;49.216;2023-05-18T13:28:17;4.47;;;2.92;;
67564;SDS011;54393;53.556;49.216;2023-05-18T13:30:45;3.87;;;2.92;;
67564;SDS011;54393;53.556;49.216;2023-05-18T13:33:13;4.32;;;3.17;;
67564;SDS011;54393;53.556;49.216;2023-05-18T13:35:43;3.40;;;3.10;;
67564;SDS011;54393;53.556;49.216;2023-05-18T13:38:11;5.05;;;3.20;;
67564;SDS011;54393;53.556;49.216;2023-05-18T13:40:38;3.70;;;2.97;;
67564;SDS011;54393;53.556;49.216;2023-05-18T13:43:05;2.87;;;2.67;;
67564;SDS011;54393;53.556;49.216;2023-05-18T13:45:33;3.35;;;2.60;;
67564;SDS011;54393;53.556;49.216;2023-05-18T13:48:00;5.53;;;3.25;;
67564;SDS011;54393;53.556;49.216;2023-05-18T13:50:31;4.00;;;3.60;;
67564;SDS011;54393;53.556;49.216;2023-05-18T13:52:58;4.37;;;3.45;;
67564;SDS011;54393;53.556;49.216;2023-05-18T13:55:25;3.70;;;2.97;;
67564;SDS011;54393;53.556;49.216;2023-05-18T13:57:51;5.70;;;3.40;;
67564;SDS011;54393;53.556;49.216;2023-05-18T14:00:18;4.22;;;2.97;;
67564;SDS011;54393;53.556;49.216;2023-05-18T14:02:45;4.03;;;2.87;;
67564;SDS011;54393;53.556;49.216;2023-05-18T14:05:13;3.10;;;2.80;;
67564;SDS011;54393;53.556;49.216;2023-05-18T14:07:41;3.47;;;3.17;;
67564;SDS011;54393;53.556;49.216;2023-05-18T14:10:09;4.12;;;2.87;;
67564;SDS011;54393;53.556;49.216;2023-05-18T14:12:36;3.42;;;2.72;;
67564;SDS011;54393;53.556;49.216;2023-05-18T14:15:03;4.18;;;3.53;;
67564;SDS011;54393;53.556;49.216;2023-05-18T14:17:30;3.20;;;2.90;;
67564;SDS011;54393;53.556;49.216;2023-05-18T14:19:57;3.53;;;3.10;;
67564;SDS011;54393;53.556;49.216;2023-05-18T14:22:24;4.53;;;3.10;;
67564;SDS011;54393;53.556;49.216;2023-05-18T14:24:50;6.15;;;3.40;;
67564;SDS011;54393;53.556;49.216;2023-05-18T14:27:17;4.57;;;3.10;;
67564;SDS011;54393;53.556;49.216;2023-05-18T14:29:47;4.60;;;3.10;;
67564;SDS011;54393;53.556;49.216;2023-05-18T14:32:14;4.65;;;3.15;;
67564;SDS011;54393;53.556;49.216;2023-05-18T14:34:41;4.25;;;2.67;;
67564;SDS011;54393;53.556;49.216;2023-05-18T14:37:07;4.35;;;3.58;;
67564;SDS011;54393;53.556;49.216;2023-05-18T14:39:34;4.55;;;3.05;;
67564;SDS011;54393;53.556;49.216;2023-05-18T14:42:00;4.47;;;3.28;;
67564;SDS011;54393;53.556;49.216;2023-05-18T14:44:27;3.42;;;3.12;;
67564;SDS011;54393;53.556;49.216;2023-05-18T14:46:53;3.35;;;3.05;;
67564;SDS011;54393;53.556;49.216;2023-05-18T14:49:20;5.10;;;3.33;;
67564;SDS011;54393;53.556;49.216;2023-05-18T14:51:46;5.20;;;3.20;;
67564;SDS011;54393;53.556;49.216;2023-05-18T14:54:13;3.62;;;3.33;;
67564;SDS011;54393;53.556;49.216;2023-05-18T14:56:39;3.53;;;3.20;;